Aérodrome :
LOGIN :

S'inscrire | Disclaimer

   EN    FR    IT 

 










Légende :    VFR   VFR Marginal   IFR   IFR Intensif   IFR Très Intensif
Visi : 
Plafond : 
>= 8 km
>= 3000ft
5 à 8 km
1000 à 3000 ft
1500m à 5 km
500 à 1000 ft
800 à 1500m
200 à 500 ft
< 800m
< 200 ft
Symboles :   Orages  Brouillard  Fortes neiges  Fortes précipitations  Vent > 20 kt
SIGMETs :   Divers  Orages  Givrage  Turbulence  Onde Orograph.  Cendres Volcan.







- Altitude de l'aérodrome : 313 ft
- Code IATA : LEH
- Voir les cartes d'approche


LFOH - Le Havre Octeville

DERNIER METAR :
  • 241500Z AUTO 04013KT 6000 NSC 13/10 Q1024 NOSIG

METARs EXPIRÉS :
  • 241430Z AUTO 05010KT 020V090 5000 BR FEW014 13/10 Q1024 NOSIG
  • 241400Z AUTO 06010KT 6000 BKN012 BKN082 12/10 Q1024 BECMG SCT030 BKN050
  • 241330Z AUTO 05009KT 5000 BR BKN014 OVC082 12/10 Q1024 BECMG SCT030 BKN050
  • 241300Z AUTO 07007KT 9999 SCT015 BKN082 13/10 Q1024 NOSIG
  • 241230Z AUTO 04009KT 8000 SCT011 SCT028 BKN072 12/10 Q1024 NOSIG

TAF TAF LFOH
Valide du 24 à 12h jusqu'au 25 à 12h UTC


241100Z 2412/2512 03006KT 9999 SCT030 BKN050
BECMG 2412/2414 03016KT
ATIS : +33 2 35 54 64 93
Pas de NOTAMs connus pour ce terrain.



MET'MAP, la Météo Aéronautique d'un coup d'oeil ! - Copyright ORBIFLY Décembre 2007 - Disclaimer

ORBIFLY MET'MAP TEAM :

Programmation & Développement : Alexandra Zaïnal
Conception & Développement : Baudouin d'Aumeries
Co-Programmation & Développement : Marc-Olivier Méhu
Soutien technique & logistique : Manuel Goepfert

Contact : metmap@orbifly.com




SOURCES & CREDITS :

   NOAA